createdAt,value
2023-04-09T00:03:37.876Z,18.80
2023-04-09T00:07:44.599Z,19.27
2023-04-09T00:11:50.427Z,19.03
2023-04-09T00:15:56.129Z,19.23
2023-04-09T00:20:01.713Z,18.30
2023-04-09T00:24:07.349Z,19.60
2023-04-09T00:28:13.163Z,21.27
2023-04-09T00:32:18.676Z,19.57
2023-04-09T00:36:25.936Z,18.67
2023-04-09T00:40:32.686Z,21.03
2023-04-09T00:44:38.250Z,21.57
2023-04-09T00:48:43.957Z,22.40
2023-04-09T00:52:49.640Z,20.90
2023-04-09T00:56:56.747Z,21.33
2023-04-09T01:01:02.359Z,22.65
2023-04-09T01:05:08.545Z,22.87
2023-04-09T01:09:42.782Z,23.07
2023-04-09T01:14:06.320Z,21.27
2023-04-09T01:18:45.657Z,20.43
2023-04-09T01:23:37.797Z,20.50
2023-04-09T01:28:03.978Z,19.63
2023-04-09T01:32:10.897Z,20.40
2023-04-09T01:36:16.913Z,20.47
2023-04-09T01:40:22.786Z,19.03
2023-04-09T01:44:29.165Z,20.43
2023-04-09T01:48:35.216Z,19.47
2023-04-09T01:52:41.201Z,17.47
2023-04-09T01:56:48.513Z,17.97
2023-04-09T02:01:06.800Z,17.93
2023-04-09T02:05:15.730Z,16.47
2023-04-09T02:09:21.715Z,17.63
2023-04-09T02:13:29.254Z,17.70
2023-04-09T02:17:35.337Z,17.60
2023-04-09T02:21:40.910Z,18.60
2023-04-09T02:25:46.594Z,19.20
2023-04-09T02:29:52.083Z,20.50
2023-04-09T02:33:57.614Z,20.40
2023-04-09T02:38:03.539Z,20.57
2023-04-09T02:42:09.119Z,21.93
2023-04-09T02:46:14.651Z,21.13
2023-04-09T02:50:20.312Z,21.07
2023-04-09T02:54:25.788Z,22.00
2023-04-09T02:58:31.353Z,20.37
2023-04-09T03:02:37.181Z,20.87
2023-04-09T03:06:42.771Z,21.30
2023-04-09T03:10:48.430Z,21.00
2023-04-09T03:14:54.068Z,20.80
2023-04-09T03:18:59.505Z,19.03
2023-04-09T03:23:05.254Z,18.53
2023-04-09T03:27:10.822Z,19.20
2023-04-09T03:31:16.472Z,19.43
2023-04-09T03:35:22.162Z,19.80
2023-04-09T03:39:30.837Z,18.70
2023-04-09T03:43:36.425Z,19.53
2023-04-09T03:47:41.955Z,17.60
2023-04-09T03:51:47.687Z,15.73
2023-04-09T03:55:53.157Z,18.40
2023-04-09T03:59:59.818Z,20.30
2023-04-09T04:04:05.631Z,20.47
2023-04-09T04:08:11.408Z,20.27
2023-04-09T04:12:16.919Z,18.87
2023-04-09T04:16:22.779Z,19.83
2023-04-09T04:20:28.294Z,20.60
2023-04-09T04:24:33.789Z,21.00
2023-04-09T04:28:40.388Z,21.73
2023-04-09T04:32:46.031Z,21.20
2023-04-09T04:36:51.549Z,20.87
2023-04-09T04:40:57.061Z,22.13
2023-04-09T04:45:02.608Z,22.50
2023-04-09T04:49:08.218Z,21.00
2023-04-09T04:53:13.831Z,22.20
2023-04-09T04:57:19.378Z,22.27
2023-04-09T05:01:25.284Z,22.60
2023-04-09T05:05:31.081Z,21.60
2023-04-09T05:09:36.583Z,19.80
2023-04-09T05:13:42.134Z,18.60
2023-04-09T05:17:47.719Z,21.47
2023-04-09T05:21:53.323Z,20.00
2023-04-09T05:25:58.799Z,19.50
2023-04-09T05:30:04.642Z,17.90
2023-04-09T05:34:10.314Z,18.40
2023-04-09T05:38:15.817Z,18.77
2023-04-09T05:42:22.237Z,18.77
2023-04-09T05:46:29.013Z,18.47
2023-04-09T05:50:43.691Z,18.60
2023-04-09T05:54:56.885Z,18.87
2023-04-09T05:59:02.439Z,19.53
2023-04-09T06:03:09.668Z,16.77
2023-04-09T06:07:15.331Z,16.67
2023-04-09T06:11:22.922Z,14.87
2023-04-09T06:15:28.643Z,15.27
2023-04-09T06:19:34.275Z,17.80
2023-04-09T06:23:40.345Z,16.70
2023-04-09T06:27:46.034Z,16.83
2023-04-09T06:31:51.571Z,17.07
2023-04-09T06:35:57.225Z,16.70
2023-04-09T06:40:03.309Z,17.63
2023-04-09T06:44:08.997Z,16.13
2023-04-09T06:48:14.712Z,16.90
2023-04-09T06:52:20.301Z,16.73
2023-04-09T06:56:25.815Z,14.80
2023-04-09T07:00:31.712Z,13.50
2023-04-09T07:04:37.559Z,15.47
2023-04-09T07:08:43.212Z,14.23
2023-04-09T07:12:48.709Z,14.67
2023-04-09T07:16:54.254Z,15.37
2023-04-09T07:21:00.185Z,14.00
2023-04-09T07:25:06.494Z,15.10
2023-04-09T07:29:12.127Z,14.00
2023-04-09T07:33:17.643Z,16.37
2023-04-09T07:37:23.481Z,15.00
2023-04-09T07:41:29.023Z,14.10
2023-04-09T07:45:34.949Z,13.77
2023-04-09T07:49:40.875Z,14.50
2023-04-09T07:53:46.528Z,13.90
2023-04-09T07:57:52.005Z,13.37
2023-04-09T08:01:57.889Z,14.23
2023-04-09T08:06:03.813Z,14.10
2023-04-09T08:10:15.221Z,13.70
2023-04-09T08:14:21.389Z,13.90
2023-04-09T08:18:26.981Z,12.17
2023-04-09T08:22:32.662Z,13.17
2023-04-09T08:26:42.310Z,13.00
2023-04-09T08:30:48.479Z,12.50
2023-04-09T08:34:53.985Z,12.93
2023-04-09T08:39:00.613Z,11.63
2023-04-09T08:43:07.486Z,10.97
2023-04-09T08:47:13.682Z,11.10
2023-04-09T08:51:24.542Z,11.30
2023-04-09T08:55:31.299Z,11.53
2023-04-09T08:59:37.861Z,10.30
2023-04-09T09:04:05.459Z,10.77
2023-04-09T09:08:14.393Z,8.97
2023-04-09T09:12:38.232Z,9.50
2023-04-09T09:16:56.861Z,9.47
2023-04-09T09:21:13.374Z,9.30
2023-04-09T09:25:23.217Z,9.20
2023-04-09T09:29:28.802Z,9.40
2023-04-09T09:33:34.385Z,9.20
2023-04-09T09:37:39.860Z,9.97
2023-04-09T09:41:47.402Z,9.07
2023-04-09T09:45:54.045Z,10.50
2023-04-09T09:49:59.669Z,9.70
2023-04-09T09:54:09.247Z,8.37
2023-04-09T09:58:27.333Z,10.00
2023-04-09T10:02:44.403Z,9.40
2023-04-09T10:06:52.884Z,9.43
2023-04-09T10:10:59.149Z,8.53
2023-04-09T10:15:06.291Z,7.53
2023-04-09T10:19:14.692Z,8.00
2023-04-09T10:23:33.179Z,7.40
2023-04-09T10:27:38.892Z,7.33
2023-04-09T10:31:55.818Z,7.17
2023-04-09T10:36:12.135Z,6.47
2023-04-09T10:40:21.799Z,7.60
2023-04-09T10:44:31.915Z,7.23
2023-04-09T10:48:37.531Z,7.07
2023-04-09T10:52:44.365Z,5.70
2023-04-09T10:57:08.617Z,7.60
2023-04-09T11:01:22.728Z,7.00
2023-04-09T11:05:36.483Z,6.63
2023-04-09T11:09:42.272Z,7.43
2023-04-09T11:13:47.735Z,7.87
2023-04-09T11:17:53.567Z,8.90
2023-04-09T11:21:59.466Z,9.40
2023-04-09T11:26:05.363Z,9.23
2023-04-09T11:30:11.338Z,8.87
2023-04-09T11:34:17.558Z,7.90
2023-04-09T11:38:23.536Z,8.67
2023-04-09T11:42:32.058Z,8.70
2023-04-09T11:46:39.173Z,9.30
2023-04-09T11:50:45.819Z,10.40
2023-04-09T11:54:51.875Z,10.20
2023-04-09T11:58:57.541Z,9.87
2023-04-09T12:03:05.391Z,10.90
2023-04-09T12:07:11.619Z,10.03
2023-04-09T12:11:17.135Z,10.63
2023-04-09T12:15:26.126Z,10.50
2023-04-09T12:19:31.897Z,11.27
2023-04-09T12:23:37.552Z,10.33
2023-04-09T12:27:43.260Z,10.37
2023-04-09T12:31:48.890Z,10.70
2023-04-09T12:35:56.096Z,11.10
2023-04-09T12:40:01.835Z,11.87
2023-04-09T12:44:07.939Z,11.30
2023-04-09T12:48:16.520Z,11.67
2023-04-09T12:52:22.623Z,10.37
2023-04-09T12:56:29.826Z,10.67
2023-04-09T13:00:35.542Z,11.90
2023-04-09T13:04:41.411Z,13.03
2023-04-09T13:08:47.391Z,12.23
2023-04-09T13:12:53.103Z,12.87
2023-04-09T13:16:58.946Z,13.20
2023-04-09T13:21:04.556Z,14.07
2023-04-09T13:25:10.312Z,14.67
2023-04-09T13:29:16.644Z,14.40
2023-04-09T13:33:22.419Z,14.33
2023-04-09T13:37:27.951Z,14.03
2023-04-09T13:41:36.739Z,14.63
2023-04-09T13:45:42.184Z,13.60
2023-04-09T13:49:47.723Z,14.30
2023-04-09T13:53:53.363Z,15.10
2023-04-09T13:57:58.918Z,16.47
2023-04-09T14:02:05.153Z,15.07
2023-04-09T14:06:10.949Z,16.77
2023-04-09T14:10:16.816Z,17.00
2023-04-09T14:14:22.440Z,17.27
2023-04-09T14:18:27.929Z,17.80
2023-04-09T14:22:33.487Z,16.93
2023-04-09T14:26:39.009Z,17.10
2023-04-09T14:30:44.597Z,17.53
2023-04-09T14:34:50.381Z,16.50
2023-04-09T14:38:57.744Z,17.40
2023-04-09T14:43:03.797Z,16.43
2023-04-09T14:47:09.275Z,16.07
2023-04-09T14:51:14.858Z,16.60
2023-04-09T14:55:21.117Z,14.20
2023-04-09T14:59:27.115Z,12.80
2023-04-09T15:03:32.838Z,14.60
2023-04-09T15:07:38.858Z,15.57
2023-04-09T15:11:44.304Z,16.20
2023-04-09T15:15:50.128Z,15.57
2023-04-09T15:19:55.711Z,16.10
2023-04-09T15:24:01.479Z,15.40
2023-04-09T15:28:07.237Z,15.73
2023-04-09T15:32:12.739Z,14.93
2023-04-09T15:36:18.497Z,14.87
2023-04-09T15:40:24.235Z,14.77
2023-04-09T15:44:29.753Z,17.00
2023-04-09T15:48:35.336Z,14.97
2023-04-09T15:52:41.234Z,16.20
2023-04-09T15:56:46.774Z,16.23
2023-04-09T16:00:52.411Z,14.30
2023-04-09T16:04:57.911Z,14.40
2023-04-09T16:09:03.896Z,13.60
2023-04-09T16:13:09.457Z,12.63
2023-04-09T16:17:15.010Z,12.47
2023-04-09T16:21:20.589Z,12.47
2023-04-09T16:25:26.180Z,11.80
2023-04-09T16:29:31.691Z,11.20
2023-04-09T16:33:37.242Z,10.33
2023-04-09T16:37:42.782Z,10.43
2023-04-09T16:41:49.358Z,9.90
2023-04-09T16:45:54.813Z,9.20
2023-04-09T16:50:00.398Z,9.77
2023-04-09T16:54:06.264Z,9.20
2023-04-09T16:58:11.823Z,10.15
2023-04-09T17:02:21.713Z,10.23
2023-04-09T17:06:27.428Z,10.10
2023-04-09T17:10:33.223Z,11.30
2023-04-09T17:14:41.761Z,11.00
2023-04-09T17:18:47.673Z,10.53
2023-04-09T17:22:53.391Z,10.77
2023-04-09T17:26:58.854Z,11.00
2023-04-09T17:31:12.233Z,11.03
2023-04-09T17:35:17.783Z,10.13
2023-04-09T17:39:29.282Z,10.70
2023-04-09T17:43:34.830Z,9.60
2023-04-09T17:47:40.793Z,9.20
2023-04-09T17:51:46.480Z,10.00
2023-04-09T17:55:52.079Z,9.55
2023-04-09T17:59:57.573Z,9.40
2023-04-09T18:04:03.389Z,10.93
2023-04-09T18:08:09.124Z,9.53
2023-04-09T18:12:14.675Z,10.13
2023-04-09T18:16:23.121Z,10.27
2023-04-09T18:20:28.911Z,11.00
2023-04-09T18:24:35.169Z,10.47
2023-04-09T18:28:40.910Z,11.37
2023-04-09T18:32:48.263Z,11.10
2023-04-09T18:36:54.828Z,11.67
2023-04-09T18:41:01.566Z,12.20
2023-04-09T18:45:08.063Z,12.73
2023-04-09T18:49:13.645Z,13.30
2023-04-09T18:53:19.120Z,14.63
2023-04-09T18:57:24.583Z,14.70
2023-04-09T19:01:30.191Z,12.63
2023-04-09T19:05:36.258Z,11.87
2023-04-09T19:09:41.833Z,12.80
2023-04-09T19:13:47.367Z,12.07
2023-04-09T19:17:53.835Z,12.10
2023-04-09T19:21:59.615Z,12.00
2023-04-09T19:26:05.625Z,12.97
2023-04-09T19:30:12.054Z,13.13
2023-04-09T19:34:17.588Z,13.03
2023-04-09T19:38:23.494Z,13.77
2023-04-09T19:42:29.023Z,12.27
2023-04-09T19:46:34.760Z,13.20
2023-04-09T19:50:41.220Z,12.40
2023-04-09T19:54:47.392Z,12.40
2023-04-09T19:58:53.072Z,13.70
2023-04-09T20:02:59.046Z,12.83
2023-04-09T20:07:04.564Z,13.20
2023-04-09T20:11:17.521Z,15.73
2023-04-09T20:15:23.069Z,15.17
2023-04-09T20:19:28.633Z,14.20
2023-04-09T20:23:34.096Z,15.10
2023-04-09T20:27:39.697Z,13.87
2023-04-09T20:31:45.248Z,15.17
2023-04-09T20:35:52.344Z,14.67
2023-04-09T20:39:59.811Z,15.07
2023-04-09T20:44:06.201Z,15.33
2023-04-09T20:48:12.065Z,14.90
2023-04-09T20:52:17.873Z,16.67
2023-04-09T20:56:23.778Z,15.17
2023-04-09T21:00:29.784Z,14.70
2023-04-09T21:04:35.366Z,16.33
2023-04-09T21:08:42.737Z,14.43
2023-04-09T21:12:48.424Z,14.77
2023-04-09T21:16:55.744Z,15.30
2023-04-09T21:21:02.387Z,13.93
2023-04-09T21:25:08.391Z,15.40
2023-04-09T21:29:13.864Z,14.53
2023-04-09T21:33:19.466Z,13.83
2023-04-09T21:37:24.948Z,15.30
2023-04-09T21:41:30.674Z,15.03
2023-04-09T21:45:36.600Z,13.53
2023-04-09T21:49:43.077Z,14.70
2023-04-09T21:53:48.601Z,14.83
2023-04-09T21:57:55.347Z,14.37
2023-04-09T22:02:00.869Z,14.73
2023-04-09T22:06:10.033Z,15.17
2023-04-09T22:10:15.602Z,15.17
2023-04-09T22:14:22.223Z,16.30
2023-04-09T22:18:27.789Z,15.97
2023-04-09T22:22:33.752Z,14.93
2023-04-09T22:26:40.910Z,14.17
2023-04-09T22:30:46.472Z,14.70
2023-04-09T22:34:52.677Z,14.90
2023-04-09T22:38:58.203Z,13.23
2023-04-09T22:43:03.742Z,14.20
2023-04-09T22:47:09.284Z,14.27
2023-04-09T22:51:15.618Z,14.57
2023-04-09T22:55:23.359Z,14.90
2023-04-09T22:59:37.301Z,15.10
2023-04-09T23:03:45.352Z,15.10
2023-04-09T23:07:51.330Z,14.03
2023-04-09T23:11:57.161Z,14.43
2023-04-09T23:16:10.552Z,14.20
2023-04-09T23:20:17.130Z,14.40
2023-04-09T23:24:22.785Z,12.87
2023-04-09T23:28:29.135Z,13.47
2023-04-09T23:32:34.898Z,13.67
2023-04-09T23:36:40.510Z,13.83
2023-04-09T23:40:49.286Z,13.60
2023-04-09T23:44:54.870Z,14.53
2023-04-09T23:49:00.552Z,15.37
2023-04-09T23:53:06.774Z,14.60
2023-04-09T23:57:12.475Z,14.53
